Time;durP1;ratioP1;P1;durP2;ratioP2;P2;SDS_P1;SDS_P2;PMS_P1;PMS_P2;Temp;Humidity;BMP_temperature;BMP_pressure;BME280_temperature;BME280_humidity;BME280_pressure;Samples;Min_cycle;Max_cycle;Signal;HPM_P1;HPM_P2
2021/11/25 00:02:14;;;;;;;6.97;3.58;;;3.20;99.90;;;;;;5059368;28;20062;-72
2021/11/25 00:04:39;;;;;;;5.72;3.10;;;3.30;99.90;;;;;;5095252;28;20036;-73
2021/11/25 00:07:05;;;;;;;7.60;3.92;;;3.10;99.90;;;;;;5095239;28;20032;-73
2021/11/25 00:09:31;;;;;;;6.72;3.72;;;2.90;99.90;;;;;;5073813;28;20038;-72
2021/11/25 00:11:56;;;;;;;5.80;3.15;;;3.10;99.90;;;;;;5075326;28;20041;-72
2021/11/25 00:14:22;;;;;;;7.35;3.58;;;3.10;99.90;;;;;;5076413;28;20053;-73
2021/11/25 00:16:48;;;;;;;6.18;3.38;;;3.10;99.90;;;;;;5055051;28;20032;-73
2021/11/25 00:19:14;;;;;;;8.52;3.55;;;3.00;99.90;;;;;;5094538;28;20062;-72
2021/11/25 00:21:40;;;;;;;6.22;3.35;;;3.10;99.90;;;;;;5090200;28;20098;-72
2021/11/25 00:24:06;;;;;;;6.53;3.10;;;3.00;99.90;;;;;;5091492;28;20578;-73
2021/11/25 00:26:33;;;;;;;5.35;2.90;;;3.10;99.90;;;;;;5086969;28;20020;-73
2021/11/25 00:28:59;;;;;;;5.85;3.55;;;3.10;99.90;;;;;;5076217;28;20040;-72
2021/11/25 00:31:25;;;;;;;7.10;3.55;;;3.20;99.90;;;;;;5080741;28;20531;-73
2021/11/25 00:33:51;;;;;;;6.30;2.92;;;3.30;99.90;;;;;;5077869;28;20041;-73
2021/11/25 00:36:17;;;;;;;6.55;3.22;;;3.10;99.90;;;;;;5078540;28;20074;-72
2021/11/25 00:38:43;;;;;;;4.95;2.80;;;3.10;99.90;;;;;;5093312;28;20043;-73
2021/11/25 00:41:09;;;;;;;6.65;3.30;;;3.10;99.90;;;;;;5091599;28;20120;-73
2021/11/25 00:43:34;;;;;;;6.57;3.47;;;3.00;99.90;;;;;;5073735;28;20067;-73
2021/11/25 00:46:00;;;;;;;4.78;2.83;;;3.00;99.90;;;;;;5093876;28;20028;-73
2021/11/25 00:48:26;;;;;;;5.97;2.85;;;3.00;99.90;;;;;;5094673;28;20039;-73
2021/11/25 00:50:52;;;;;;;5.43;2.88;;;3.00;99.90;;;;;;5085511;28;20040;-73
2021/11/25 00:53:18;;;;;;;7.70;2.60;;;3.00;99.90;;;;;;5073557;28;20025;-72
2021/11/25 00:55:44;;;;;;;6.47;3.17;;;3.00;99.90;;;;;;5090081;28;20036;-73
2021/11/25 00:58:10;;;;;;;6.10;3.28;;;3.00;99.90;;;;;;5094862;28;20031;-74
2021/11/25 01:00:36;;;;;;;8.25;3.75;;;2.90;99.90;;;;;;5079412;28;20028;-73
2021/11/25 01:03:02;;;;;;;6.72;3.78;;;3.10;99.90;;;;;;5085746;28;20066;-73
2021/11/25 01:05:28;;;;;;;6.15;3.00;;;3.10;99.90;;;;;;5080562;28;20060;-74
2021/11/25 01:07:54;;;;;;;6.35;3.42;;;3.20;99.90;;;;;;5093829;28;20118;-73
2021/11/25 01:10:22;;;;;;;8.02;3.35;;;3.30;99.90;;;;;;5093411;28;20120;-73
2021/11/25 01:12:50;;;;;;;7.97;3.90;;;3.40;99.90;;;;;;5073776;28;20113;-72
2021/11/25 01:15:18;;;;;;;7.55;3.78;;;3.60;99.90;;;;;;5073041;28;20111;-73
2021/11/25 01:17:44;;;;;;;7.15;3.60;;;3.50;99.90;;;;;;5074005;28;20040;-73
2021/11/25 01:20:14;;;;;;;9.23;4.03;;;3.30;99.90;;;;;;5074809;28;20028;-73
2021/11/25 01:22:40;;;;;;;6.40;3.58;;;3.10;99.90;;;;;;5073542;28;20359;-73
2021/11/25 01:25:06;;;;;;;9.52;4.45;;;3.10;99.90;;;;;;5073430;28;20486;-72
2021/11/25 01:27:32;;;;;;;7.43;3.92;;;3.10;99.90;;;;;;5094110;28;20024;-73
2021/11/25 01:29:58;;;;;;;6.93;3.78;;;3.10;99.90;;;;;;5093835;28;20039;-73
2021/11/25 01:32:24;;;;;;;7.30;4.18;;;3.10;99.90;;;;;;5077014;28;20020;-73
2021/11/25 01:34:49;;;;;;;8.07;4.30;;;3.00;99.90;;;;;;5087534;28;20020;-73
2021/11/25 01:37:15;;;;;;;9.73;4.95;;;2.80;99.90;;;;;;5093437;28;20032;-72
2021/11/25 01:39:41;;;;;;;8.75;4.28;;;2.80;99.90;;;;;;5074841;28;20043;-72
2021/11/25 01:42:07;;;;;;;7.65;4.18;;;2.70;99.90;;;;;;5073568;28;20031;-73
2021/11/25 01:44:32;;;;;;;5.63;3.40;;;2.60;99.90;;;;;;5086763;28;20059;-73
2021/11/25 01:47:02;;;;;;;7.07;3.63;;;2.60;99.90;;;;;;5067282;28;20025;-73
2021/11/25 01:49:29;;;;;;;6.43;3.67;;;2.80;99.90;;;;;;5067663;28;20037;-73
2021/11/25 01:51:54;;;;;;;7.03;3.85;;;2.70;99.90;;;;;;5051105;28;20040;-73
2021/11/25 01:54:20;;;;;;;8.90;3.63;;;2.50;99.90;;;;;;5082351;28;20036;-72
2021/11/25 01:56:46;;;;;;;8.07;3.88;;;2.50;99.90;;;;;;5074565;28;20020;-74
2021/11/25 01:59:11;;;;;;;8.90;3.53;;;2.50;99.90;;;;;;5071328;28;20023;-72
2021/11/25 02:01:37;;;;;;;5.97;3.38;;;2.30;99.90;;;;;;5076927;28;20028;-73
2021/11/25 02:04:05;;;;;;;6.35;3.70;;;2.40;99.90;;;;;;5089164;28;20028;-73
2021/11/25 02:06:31;;;;;;;6.60;3.65;;;2.50;99.90;;;;;;5079127;28;20028;-73
2021/11/25 02:08:57;;;;;;;5.68;3.40;;;2.60;99.90;;;;;;5072538;28;20032;-73
2021/11/25 02:11:23;;;;;;;7.53;5.10;;;2.80;99.90;;;;;;5090110;28;20059;-73
2021/11/25 02:13:49;;;;;;;8.48;4.45;;;2.70;99.90;;;;;;5086110;28;20570;-72
2021/11/25 02:16:15;;;;;;;7.07;3.95;;;2.60;99.90;;;;;;5085416;28;20021;-73
2021/11/25 02:18:41;;;;;;;7.25;3.40;;;2.50;99.90;;;;;;5069685;28;20494;-72
2021/11/25 02:21:07;;;;;;;7.88;3.83;;;2.40;99.90;;;;;;5052782;28;20025;-73
2021/11/25 02:23:33;;;;;;;5.80;3.90;;;2.20;99.90;;;;;;5055123;28;20025;-72
2021/11/25 02:25:59;;;;;;;7.38;3.58;;;2.10;99.90;;;;;;5077562;28;20035;-73
2021/11/25 02:28:31;;;;;;;8.15;3.95;;;2.30;99.90;;;;;;5092807;28;20363;-74
2021/11/25 02:30:57;;;;;;;7.20;3.50;;;2.30;99.90;;;;;;5070735;28;20041;-73
2021/11/25 02:33:23;;;;;;;5.55;2.95;;;2.40;99.90;;;;;;5072727;28;20017;-72
2021/11/25 02:35:49;;;;;;;6.60;3.28;;;2.40;99.90;;;;;;5073388;28;20115;-73
2021/11/25 02:38:16;;;;;;;6.25;3.20;;;2.20;99.90;;;;;;5092589;28;20440;-72
2021/11/25 02:40:51;;;;;;;12.55;3.58;;;2.20;99.90;;;;;;5075450;28;20032;-73
2021/11/25 02:43:20;;;;;;;6.50;4.00;;;2.30;99.90;;;;;;5070980;28;20028;-72
2021/11/25 02:45:58;;;;;;;7.07;3.47;;;2.30;99.90;;;;;;5073582;28;20091;-73
2021/11/25 02:48:42;;;;;;;5.72;2.97;;;2.30;99.90;;;;;;5072393;28;20034;-72
2021/11/25 02:51:09;;;;;;;8.55;3.13;;;2.20;99.90;;;;;;5059894;28;20078;-73
2021/11/25 02:53:36;;;;;;;6.22;3.63;;;2.30;99.90;;;;;;5064751;28;20102;-72
2021/11/25 02:56:12;;;;;;;10.77;4.35;;;2.50;99.90;;;;;;5075305;28;20056;-72
2021/11/25 02:58:39;;;;;;;9.85;4.63;;;2.50;99.90;;;;;;5072934;28;20021;-73
2021/11/25 03:01:13;;;;;;;9.25;4.78;;;2.50;99.90;;;;;;5071062;28;20025;-73
2021/11/25 03:03:39;;;;;;;9.25;4.30;;;2.60;99.90;;;;;;5084693;28;20450;-72
2021/11/25 03:06:05;;;;;;;8.13;3.70;;;2.70;99.90;;;;;;5085609;28;20033;-72
2021/11/25 03:08:31;;;;;;;8.18;3.58;;;2.60;99.90;;;;;;5080688;28;20504;-73
2021/11/25 03:11:01;;;;;;;7.93;4.30;;;2.40;99.90;;;;;;5070798;28;20119;-72
2021/11/25 03:13:29;;;;;;;8.45;4.90;;;2.40;99.90;;;;;;5081228;28;20063;-73
2021/11/25 03:15:55;;;;;;;7.45;3.72;;;2.60;99.90;;;;;;5084065;28;20028;-72
2021/11/25 03:18:21;;;;;;;7.03;3.08;;;2.60;99.90;;;;;;5086250;28;20107;-73
2021/11/25 03:20:50;;;;;;;6.55;3.50;;;2.50;99.90;;;;;;5073261;28;20104;-72
2021/11/25 03:23:18;;;;;;;6.55;3.65;;;2.30;99.90;;;;;;5084728;28;20082;-72
2021/11/25 03:25:45;;;;;;;7.43;3.80;;;2.40;99.90;;;;;;5088555;28;20067;-73
2021/11/25 03:28:12;;;;;;;8.90;4.15;;;2.30;99.90;;;;;;5083726;28;20024;-73
2021/11/25 03:30:39;;;;;;;7.50;3.60;;;2.30;99.90;;;;;;5090866;28;20106;-73
2021/11/25 03:33:06;;;;;;;8.43;4.10;;;2.30;99.90;;;;;;5063430;28;20034;-73
2021/11/25 03:35:32;;;;;;;8.35;4.43;;;2.40;99.90;;;;;;5089373;28;20024;-73
2021/11/25 03:37:58;;;;;;;6.68;3.53;;;2.50;99.90;;;;;;5081577;28;20027;-73
2021/11/25 03:40:24;;;;;;;6.30;3.60;;;2.50;99.90;;;;;;5091859;28;20024;-73
2021/11/25 03:42:50;;;;;;;7.95;3.63;;;2.50;99.90;;;;;;5082431;28;20017;-72
2021/11/25 03:45:16;;;;;;;5.38;3.00;;;2.50;99.90;;;;;;5072376;28;20029;-72
2021/11/25 03:47:44;;;;;;;7.38;4.25;;;2.10;99.90;;;;;;5079101;28;20580;-73
2021/11/25 03:50:11;;;;;;;6.45;2.85;;;1.90;99.90;;;;;;5054756;28;20124;-73
2021/11/25 03:52:37;;;;;;;7.00;3.08;;;1.90;99.90;;;;;;5064403;28;20024;-73
2021/11/25 03:55:05;;;;;;;6.80;3.60;;;1.90;99.90;;;;;;5090097;28;20471;-73
2021/11/25 03:57:31;;;;;;;8.60;3.67;;;2.00;99.90;;;;;;5084896;28;20035;-74
2021/11/25 03:59:57;;;;;;;9.23;3.30;;;2.10;99.90;;;;;;5091280;28;20032;-73
2021/11/25 04:02:23;;;;;;;6.78;3.42;;;2.20;99.90;;;;;;5077577;28;20122;-73
2021/11/25 04:04:49;;;;;;;6.07;3.00;;;2.10;99.90;;;;;;5043631;28;20026;-72
2021/11/25 04:07:15;;;;;;;7.95;4.15;;;2.20;99.90;;;;;;5063304;28;20119;-73
2021/11/25 04:09:41;;;;;;;6.35;3.15;;;2.20;99.90;;;;;;5083591;28;20106;-73
2021/11/25 04:12:07;;;;;;;7.75;3.85;;;2.00;99.90;;;;;;5067543;28;20196;-72
2021/11/25 04:14:33;;;;;;;8.60;3.38;;;2.00;99.90;;;;;;5063233;28;20441;-73
2021/11/25 04:16:59;;;;;;;7.32;3.83;;;2.00;99.90;;;;;;5070705;28;20121;-72
2021/11/25 04:19:26;;;;;;;7.55;3.38;;;2.10;99.90;;;;;;5064422;28;20048;-72
2021/11/25 04:21:52;;;;;;;8.30;3.70;;;2.00;99.90;;;;;;5065578;28;20086;-72
2021/11/25 04:24:18;;;;;;;6.88;3.60;;;2.20;99.90;;;;;;5085813;28;20031;-73
2021/11/25 04:26:44;;;;;;;9.32;4.30;;;2.40;99.90;;;;;;5070039;28;20024;-72
2021/11/25 04:29:11;;;;;;;7.00;4.13;;;2.50;99.90;;;;;;5058656;28;20028;-72
2021/11/25 04:37:07;;;;;;;8.80;4.80;;;2.50;99.90;;;;;;5068983;28;20040;-72
2021/11/25 04:39:32;;;;;;;9.05;4.05;;;2.30;99.90;;;;;;5076397;28;20028;-73
2021/11/25 04:41:58;;;;;;;10.23;4.28;;;2.00;99.90;;;;;;5090294;28;20024;-73
2021/11/25 04:44:24;;;;;;;7.53;4.10;;;2.00;99.90;;;;;;5079636;28;20027;-72
2021/11/25 04:46:50;;;;;;;5.55;3.50;;;1.90;99.90;;;;;;5077820;28;20025;-73
2021/11/25 04:49:15;;;;;;;5.50;3.05;;;1.70;99.90;;;;;;5069580;28;20035;-72
2021/11/25 04:51:41;;;;;;;6.32;3.08;;;1.70;99.90;;;;;;5088768;28;20030;-73
2021/11/25 04:54:07;;;;;;;5.78;3.10;;;1.50;99.90;;;;;;5081090;28;20561;-72
2021/11/25 04:56:33;;;;;;;8.13;3.47;;;1.40;99.90;;;;;;5090082;28;20517;-73
2021/11/25 04:58:59;;;;;;;8.75;4.43;;;1.50;99.90;;;;;;5069808;28;20665;-73
2021/11/25 05:01:25;;;;;;;9.50;3.33;;;1.70;99.90;;;;;;5087134;28;20107;-73
2021/11/25 05:03:51;;;;;;;7.10;3.17;;;1.70;99.90;;;;;;5072857;28;20036;-72
2021/11/25 05:06:17;;;;;;;7.68;3.88;;;1.60;99.90;;;;;;5086666;28;20032;-73
2021/11/25 05:08:43;;;;;;;5.95;3.65;;;1.80;99.90;;;;;;5069665;28;20107;-73
2021/11/25 05:11:09;;;;;;;6.75;3.15;;;2.00;99.90;;;;;;5066397;28;20552;-72
2021/11/25 05:13:35;;;;;;;7.32;3.92;;;2.00;99.90;;;;;;5066312;28;20039;-73
2021/11/25 05:16:03;;;;;;;8.13;3.42;;;1.80;99.90;;;;;;5085650;28;20089;-73
2021/11/25 05:18:29;;;;;;;7.43;3.42;;;1.80;99.90;;;;;;5072265;28;20013;-72
2021/11/25 05:20:55;;;;;;;6.07;3.33;;;1.70;99.90;;;;;;5066543;28;20546;-72
2021/11/25 05:23:20;;;;;;;7.95;3.85;;;1.70;99.90;;;;;;5076542;28;20058;-72
2021/11/25 05:25:46;;;;;;;5.68;3.30;;;1.70;99.90;;;;;;5086696;28;20082;-72
2021/11/25 05:28:12;;;;;;;7.75;3.78;;;1.60;99.90;;;;;;5077324;28;20034;-73
2021/11/25 05:30:38;;;;;;;8.70;3.97;;;1.70;99.90;;;;;;5066969;28;20036;-73
2021/11/25 05:33:04;;;;;;;12.63;6.70;;;1.70;99.90;;;;;;5074924;28;20036;-72
2021/11/25 05:35:30;;;;;;;10.85;6.22;;;1.80;99.90;;;;;;5066146;28;20115;-73
2021/11/25 05:37:57;;;;;;;10.00;5.53;;;1.90;99.90;;;;;;5072393;28;20773;-72
2021/11/25 05:40:23;;;;;;;10.45;5.10;;;2.00;99.90;;;;;;5064772;28;20128;-72
2021/11/25 05:42:49;;;;;;;9.07;4.20;;;2.00;99.90;;;;;;5082301;28;20470;-73
2021/11/25 05:45:19;;;;;;;9.15;4.60;;;2.00;99.90;;;;;;5065928;28;20039;-73
2021/11/25 05:47:47;;;;;;;11.73;5.10;;;1.80;99.90;;;;;;5083171;28;20040;-73
2021/11/25 05:50:22;;;;;;;8.10;4.07;;;1.80;99.90;;;;;;5066750;28;20060;-72
2021/11/25 05:52:49;;;;;;;7.43;3.35;;;1.60;99.90;;;;;;5077058;28;20032;-72
2021/11/25 05:55:15;;;;;;;7.35;2.97;;;1.60;99.90;;;;;;5063932;28;20020;-73
2021/11/25 05:57:42;;;;;;;10.07;4.40;;;1.50;99.90;;;;;;5078975;28;20043;-73
2021/11/25 06:00:12;;;;;;;6.35;3.92;;;1.60;99.90;;;;;;5071064;28;20041;-73
2021/11/25 06:02:40;;;;;;;8.05;3.60;;;1.70;99.90;;;;;;5064905;28;20629;-73
2021/11/25 06:05:06;;;;;;;7.65;4.35;;;1.80;99.90;;;;;;5074637;28;20032;-73
2021/11/25 06:07:32;;;;;;;7.03;3.33;;;1.70;99.90;;;;;;5071476;28;20423;-73
2021/11/25 06:09:58;;;;;;;8.52;3.22;;;1.80;99.90;;;;;;5069092;28;20041;-73
2021/11/25 06:12:24;;;;;;;7.68;3.50;;;1.70;99.90;;;;;;5065564;28;20722;-73
2021/11/25 06:14:50;;;;;;;6.90;3.97;;;1.80;99.90;;;;;;5077325;28;20032;-73
2021/11/25 06:17:16;;;;;;;7.75;3.72;;;2.00;99.90;;;;;;5065453;28;20031;-73
2021/11/25 06:19:42;;;;;;;8.68;4.03;;;1.90;99.90;;;;;;5064664;28;20114;-73
2021/11/25 06:22:07;;;;;;;9.65;4.10;;;1.90;99.90;;;;;;5064162;28;20032;-73
2021/11/25 06:24:33;;;;;;;7.00;3.72;;;1.90;99.90;;;;;;5075937;28;20043;-73
2021/11/25 06:26:59;;;;;;;8.85;3.67;;;1.90;99.90;;;;;;5065570;28;20021;-72
2021/11/25 06:29:24;;;;;;;7.45;3.88;;;1.90;99.90;;;;;;5067461;28;20561;-72
2021/11/25 06:31:50;;;;;;;7.32;4.20;;;1.80;99.90;;;;;;5062467;28;20387;-73
2021/11/25 06:34:16;;;;;;;10.10;4.07;;;1.60;99.90;;;;;;5064424;28;20484;-72
2021/11/25 06:36:42;;;;;;;8.98;3.63;;;1.50;99.90;;;;;;5073187;28;20055;-73
2021/11/25 06:39:08;;;;;;;10.13;3.53;;;1.50;99.90;;;;;;5081366;28;20024;-73
2021/11/25 06:41:33;;;;;;;9.75;4.03;;;1.70;99.90;;;;;;5067505;28;20112;-72
2021/11/25 06:43:59;;;;;;;7.18;3.80;;;1.90;99.90;;;;;;5064303;28;20024;-72
2021/11/25 06:46:25;;;;;;;7.65;3.83;;;2.00;99.90;;;;;;5063675;28;20021;-73
2021/11/25 06:48:51;;;;;;;8.23;4.40;;;2.10;99.90;;;;;;5063230;28;20051;-73
2021/11/25 06:51:16;;;;;;;8.25;4.60;;;2.10;99.90;;;;;;5062599;28;20437;-73
2021/11/25 06:53:43;;;;;;;8.23;4.20;;;1.90;99.90;;;;;;5048920;28;20103;-73
2021/11/25 06:56:09;;;;;;;9.32;4.40;;;1.80;99.90;;;;;;5064242;28;20028;-73
2021/11/25 06:58:34;;;;;;;16.13;9.82;;;1.70;99.90;;;;;;5063954;28;20105;-73
2021/11/25 07:01:03;;;;;;;8.65;4.90;;;1.50;99.90;;;;;;5064347;28;20082;-73
2021/11/25 07:03:29;;;;;;;10.10;5.40;;;1.80;99.90;;;;;;5052038;28;20605;-73
2021/11/25 07:05:55;;;;;;;13.40;7.85;;;1.90;99.90;;;;;;5049471;28;20047;-73
2021/11/25 07:08:20;;;;;;;9.82;4.68;;;1.80;99.90;;;;;;5061000;28;20032;-73
2021/11/25 07:10:46;;;;;;;8.98;4.85;;;1.70;99.90;;;;;;5061456;28;20037;-73
2021/11/25 07:13:12;;;;;;;11.73;5.78;;;1.70;99.90;;;;;;5060245;28;20053;-73
2021/11/25 07:15:38;;;;;;;8.25;4.25;;;1.60;99.90;;;;;;5061888;28;20584;-72
2021/11/25 07:18:03;;;;;;;7.80;3.97;;;1.70;99.90;;;;;;5062283;28;20515;-73
2021/11/25 07:20:29;;;;;;;9.02;4.65;;;1.80;99.90;;;;;;5061131;28;20101;-73
2021/11/25 07:22:55;;;;;;;11.15;7.05;;;1.80;99.90;;;;;;5062246;28;20158;-72
2021/11/25 07:25:23;;;;;;;8.48;3.92;;;2.00;99.90;;;;;;5043506;28;20480;-73
2021/11/25 07:27:49;;;;;;;7.93;3.97;;;2.10;99.90;;;;;;5043484;28;20025;-72
2021/11/25 07:30:16;;;;;;;11.57;7.07;;;2.20;99.90;;;;;;5043452;28;20499;-73
2021/11/25 07:32:43;;;;;;;9.60;5.70;;;2.40;99.90;;;;;;5043328;28;20029;-73
2021/11/25 07:35:11;;;;;;;9.32;5.05;;;2.40;99.90;;;;;;5059037;28;20032;-73
2021/11/25 07:37:37;;;;;;;7.32;4.47;;;2.50;99.90;;;;;;5055858;28;20029;-73
2021/11/25 07:40:05;;;;;;;8.55;4.68;;;2.50;99.90;;;;;;5063396;28;20028;-74
2021/11/25 07:42:31;;;;;;;11.15;4.80;;;2.40;99.90;;;;;;5063256;28;20023;-73
2021/11/25 07:44:57;;;;;;;6.60;3.92;;;2.40;99.90;;;;;;5063454;28;20029;-73
2021/11/25 07:47:31;;;;;;;7.30;4.05;;;2.30;99.90;;;;;;5063685;28;20087;-74
2021/11/25 07:49:56;;;;;;;8.02;4.25;;;2.30;99.90;;;;;;5047333;28;20040;-73
2021/11/25 07:52:22;;;;;;;7.80;4.60;;;2.30;99.90;;;;;;5063387;28;20025;-73
2021/11/25 07:54:48;;;;;;;9.63;4.32;;;2.30;99.90;;;;;;5052527;28;20025;-73
2021/11/25 07:57:13;;;;;;;8.02;4.30;;;2.40;99.90;;;;;;5044457;28;20041;-73
2021/11/25 07:59:39;;;;;;;8.05;4.18;;;2.50;99.90;;;;;;5044351;28;20028;-73
2021/11/25 08:02:05;;;;;;;9.52;4.40;;;2.30;99.90;;;;;;5047835;28;20459;-73
2021/11/25 08:04:31;;;;;;;7.38;4.10;;;2.30;99.90;;;;;;5054470;28;20116;-75
2021/11/25 08:06:57;;;;;;;7.50;4.35;;;2.30;99.90;;;;;;5054779;28;20033;-75
2021/11/25 08:09:22;;;;;;;18.60;5.22;;;2.40;99.90;;;;;;5047778;28;20086;-74
2021/11/25 08:11:49;;;;;;;7.88;5.78;;;2.50;99.90;;;;;;5046910;28;20503;-75
2021/11/25 08:14:15;;;;;;;14.30;6.00;;;2.60;99.90;;;;;;5047705;28;20040;-75
2021/11/25 08:16:41;;;;;;;12.65;6.22;;;2.60;99.90;;;;;;5054564;28;20047;-75
2021/11/25 08:19:07;;;;;;;11.02;5.85;;;2.60;99.90;;;;;;5067534;28;20025;-75
2021/11/25 08:21:33;;;;;;;13.38;6.50;;;2.50;99.90;;;;;;5067461;28;20039;-75
2021/11/25 08:24:00;;;;;;;9.10;5.82;;;2.40;99.90;;;;;;5067748;28;20028;-75
2021/11/25 08:26:26;;;;;;;9.45;5.15;;;2.50;99.90;;;;;;5065978;28;20028;-75
2021/11/25 08:28:51;;;;;;;9.25;5.53;;;2.30;99.90;;;;;;5047087;28;20091;-74
2021/11/25 08:31:18;;;;;;;12.63;6.45;;;2.40;99.90;;;;;;5049334;28;20029;-75
2021/11/25 08:33:44;;;;;;;12.75;7.13;;;2.70;99.90;;;;;;5063188;28;20050;-75
2021/11/25 08:36:10;;;;;;;13.13;6.22;;;2.90;99.90;;;;;;5082012;28;20028;-75
2021/11/25 08:38:36;;;;;;;8.52;5.03;;;2.90;99.90;;;;;;5081004;28;20029;-75
2021/11/25 08:41:02;;;;;;;10.98;5.80;;;3.00;99.90;;;;;;5068506;28;20144;-75
2021/11/25 08:43:28;;;;;;;10.60;5.75;;;3.20;99.90;;;;;;5067806;28;20021;-75
2021/11/25 08:45:54;;;;;;;10.57;6.88;;;3.30;99.90;;;;;;5068100;28;20025;-75
2021/11/25 08:48:19;;;;;;;10.85;6.18;;;3.30;99.90;;;;;;5068006;28;20031;-75
2021/11/25 08:50:45;;;;;;;11.98;6.45;;;3.30;99.90;;;;;;5067134;28;20508;-75
2021/11/25 08:53:12;;;;;;;10.95;6.00;;;3.40;99.90;;;;;;5055656;28;20074;-75
2021/11/25 08:55:37;;;;;;;12.48;6.97;;;3.40;99.90;;;;;;5054014;28;20035;-75
2021/11/25 08:58:04;;;;;;;10.75;5.75;;;3.30;99.90;;;;;;5087505;28;20028;-75
2021/11/25 09:00:33;;;;;;;11.07;5.97;;;3.30;99.90;;;;;;5087085;28;20454;-75
2021/11/25 09:02:59;;;;;;;14.05;6.80;;;3.30;99.90;;;;;;5073406;28;20905;-75
2021/11/25 09:05:25;;;;;;;12.45;7.97;;;3.40;99.90;;;;;;5045093;28;20032;-74
2021/11/25 09:07:51;;;;;;;20.00;8.45;;;3.20;99.90;;;;;;5046108;28;20033;-74
2021/11/25 09:10:17;;;;;;;18.75;10.00;;;3.20;99.90;;;;;;5044959;28;20033;-75
2021/11/25 09:12:43;;;;;;;17.50;7.63;;;3.10;99.90;;;;;;5044455;28;20571;-75
2021/11/25 09:15:09;;;;;;;12.85;7.18;;;3.30;99.90;;;;;;5048796;28;20067;-74
2021/11/25 09:17:36;;;;;;;11.35;6.65;;;3.10;99.90;;;;;;5044775;28;20029;-75
2021/11/25 09:20:04;;;;;;;17.92;6.28;;;3.00;99.90;;;;;;5043174;28;20341;-75
2021/11/25 09:22:30;;;;;;;12.23;6.07;;;3.00;99.90;;;;;;5044632;28;20035;-75
2021/11/25 09:24:56;;;;;;;17.95;7.70;;;3.20;99.90;;;;;;5061891;28;20111;-74
2021/11/25 09:27:22;;;;;;;12.25;7.25;;;3.30;99.90;;;;;;5066524;28;20546;-75
2021/11/25 09:29:47;;;;;;;21.75;9.63;;;3.40;99.90;;;;;;5065887;28;20154;-74
2021/11/25 09:32:13;;;;;;;11.82;6.82;;;3.40;99.90;;;;;;5066339;28;20115;-75
2021/11/25 09:34:40;;;;;;;14.38;8.27;;;3.30;99.90;;;;;;5057621;28;20024;-74
2021/11/25 09:37:06;;;;;;;12.75;7.50;;;3.40;99.90;;;;;;5046008;28;20025;-75
2021/11/25 09:39:32;;;;;;;11.55;7.03;;;3.50;99.90;;;;;;5053390;28;20040;-75
2021/11/25 09:41:58;;;;;;;14.90;7.32;;;3.40;99.90;;;;;;5046089;28;20021;-75
2021/11/25 09:44:25;;;;;;;13.68;6.55;;;3.50;99.90;;;;;;5045526;28;20017;-74
2021/11/25 09:46:54;;;;;;;12.20;6.72;;;3.50;99.90;;;;;;5045847;28;20042;-75
2021/11/25 09:49:22;;;;;;;13.30;6.57;;;3.60;99.90;;;;;;5060702;28;20746;-75
2021/11/25 09:51:49;;;;;;;14.30;6.85;;;3.70;99.90;;;;;;5055720;28;20036;-75
2021/11/25 09:54:15;;;;;;;12.15;6.30;;;3.50;99.90;;;;;;5052641;28;20036;-75
2021/11/25 09:56:42;;;;;;;13.88;6.75;;;3.50;99.90;;;;;;5044747;28;20036;-75
2021/11/25 09:59:08;;;;;;;53.90;24.25;;;3.60;99.90;;;;;;5065499;28;20112;-75
2021/11/25 10:01:34;;;;;;;18.33;8.48;;;3.70;99.90;;;;;;5064798;28;20111;-75
2021/11/25 10:04:00;;;;;;;12.50;7.20;;;3.70;99.90;;;;;;5064800;28;20438;-74
2021/11/25 10:06:36;;;;;;;12.88;7.20;;;3.60;99.90;;;;;;5065992;28;20078;-75
2021/11/25 10:09:04;;;;;;;13.35;7.75;;;3.60;99.90;;;;;;5065866;28;20033;-74
2021/11/25 10:11:40;;;;;;;11.85;7.18;;;3.60;99.90;;;;;;5065364;28;20106;-75
2021/11/25 10:14:08;;;;;;;16.58;7.45;;;3.70;99.90;;;;;;5060499;28;20021;-75
2021/11/25 10:16:41;;;;;;;14.27;7.15;;;3.60;99.90;;;;;;5045288;28;20027;-75
2021/11/25 10:19:14;;;;;;;12.77;6.72;;;3.60;99.90;;;;;;5044001;28;20536;-75
2021/11/25 10:21:53;;;;;;;12.73;6.80;;;3.70;99.90;;;;;;5062621;28;20028;-74
2021/11/25 10:24:36;;;;;;;18.58;11.35;;;3.80;99.90;;;;;;5064497;28;20463;-75
2021/11/25 10:27:13;;;;;;;15.20;8.05;;;3.90;99.90;;;;;;5064785;28;20455;-75
2021/11/25 10:29:39;;;;;;;21.45;7.55;;;3.80;99.90;;;;;;5064956;28;20020;-74
2021/11/25 10:32:05;;;;;;;13.32;6.80;;;3.90;99.90;;;;;;5065107;28;20026;-74
2021/11/25 10:34:54;;;;;;;11.85;6.70;;;3.90;99.90;;;;;;5061410;28;20120;-75
2021/11/25 10:38:37;;;;;;;13.55;6.53;;;3.90;99.90;;;;;;5044970;28;20912;-75
2021/11/25 10:40:30;;;;;;;11.73;6.47;;;4.00;99.90;;;;;;5039380;28;20060;-74
2021/11/25 10:42:56;;;;;;;13.77;8.95;;;4.00;99.90;;;;;;5044750;28;20041;-75
2021/11/25 10:45:22;;;;;;;11.30;5.35;;;4.10;99.90;;;;;;5045749;28;20057;-75
2021/11/25 10:47:56;;;;;;;20.17;9.60;;;4.10;99.90;;;;;;5064716;28;20133;-75
2021/11/25 10:50:22;;;;;;;45.77;30.17;;;4.10;99.90;;;;;;5064640;28;20067;-75
2021/11/25 10:52:49;;;;;;;20.75;14.98;;;4.20;99.90;;;;;;5064478;28;20266;-75
2021/11/25 10:55:14;;;;;;;10.95;6.88;;;4.30;99.90;;;;;;5048467;28;20067;-75
2021/11/25 10:57:45;;;;;;;13.40;7.13;;;4.30;99.90;;;;;;5044742;28;20057;-75
2021/11/25 11:00:24;;;;;;;24.92;14.73;;;4.20;99.90;;;;;;5043248;28;20108;-75
2021/11/25 11:03:10;;;;;;;13.32;7.18;;;4.20;99.90;;;;;;5044270;28;20021;-75
2021/11/25 11:05:47;;;;;;;16.83;8.52;;;4.10;99.90;;;;;;5050218;28;20148;-75
2021/11/25 11:08:13;;;;;;;10.35;5.95;;;4.20;99.90;;;;;;5054091;28;20032;-75
2021/11/25 11:10:53;;;;;;;11.00;6.07;;;4.20;99.90;;;;;;5061692;28;20028;-75
2021/11/25 11:15:55;;;;;;;8.95;5.13;;;4.10;99.90;;;;;;5062517;28;20044;-75
2021/11/25 11:21:27;;;;;;;8.30;5.22;;;4.00;99.90;;;;;;5062748;28;20402;-75
2021/11/25 11:23:54;;;;;;;8.55;5.15;;;4.00;99.90;;;;;;5062682;28;20483;-75
2021/11/25 11:26:20;;;;;;;13.27;6.00;;;4.00;99.90;;;;;;5064635;28;20040;-75
2021/11/25 11:28:46;;;;;;;11.80;5.50;;;3.90;99.90;;;;;;5055127;28;20021;-75
2021/11/25 11:31:12;;;;;;;11.23;5.68;;;3.90;99.90;;;;;;5044359;28;20037;-75
2021/11/25 11:33:38;;;;;;;11.65;5.65;;;4.00;99.90;;;;;;5049472;28;20020;-75
2021/11/25 11:36:05;;;;;;;12.43;6.63;;;4.10;99.90;;;;;;5069341;28;20024;-75
2021/11/25 11:38:32;;;;;;;12.77;6.63;;;4.20;99.90;;;;;;5069910;28;20338;-75
2021/11/25 11:40:59;;;;;;;13.13;6.43;;;4.30;99.90;;;;;;5071106;28;20032;-75
2021/11/25 11:43:26;;;;;;;13.23;6.45;;;4.40;99.90;;;;;;5070615;28;20025;-75
2021/11/25 11:45:52;;;;;;;12.07;5.82;;;4.40;99.90;;;;;;5071143;28;20086;-74
2021/11/25 11:48:18;;;;;;;13.43;5.50;;;4.40;99.90;;;;;;5070469;28;20028;-75
2021/11/25 11:50:49;;;;;;;9.88;6.00;;;4.30;99.90;;;;;;5050578;28;20161;-75
2021/11/25 11:53:19;;;;;;;8.98;5.03;;;4.30;99.90;;;;;;5050673;28;20048;-75
2021/11/25 11:55:48;;;;;;;10.57;5.15;;;4.30;99.90;;;;;;5050563;28;20074;-75
2021/11/25 11:58:59;;;;;;;8.95;5.22;;;4.20;99.90;;;;;;5051659;28;20078;-75
2021/11/25 12:01:30;;;;;;;10.80;5.75;;;4.20;99.90;;;;;;5033938;28;20033;-75
2021/11/25 12:04:13;;;;;;;10.93;5.25;;;4.10;99.90;;;;;;5050358;28;20111;-75
2021/11/25 12:06:45;;;;;;;11.85;5.97;;;4.10;99.90;;;;;;5051980;28;20398;-75
2021/11/25 12:09:12;;;;;;;12.75;5.68;;;4.00;99.90;;;;;;5053421;28;20037;-75
2021/11/25 12:11:41;;;;;;;12.35;5.35;;;4.00;99.90;;;;;;5072719;28;20048;-76
2021/11/25 12:14:23;;;;;;;10.20;5.40;;;4.00;99.90;;;;;;5073569;28;20027;-76
2021/11/25 12:16:56;;;;;;;10.65;5.38;;;4.00;99.90;;;;;;5073552;28;20052;-74
2021/11/25 12:19:31;;;;;;;14.80;6.85;;;4.10;99.90;;;;;;5071206;28;20016;-75
2021/11/25 12:22:14;;;;;;;14.57;8.60;;;4.40;99.90;;;;;;5049911;28;20043;-75
2021/11/25 12:24:55;;;;;;;17.98;10.95;;;4.50;99.90;;;;;;5049844;28;20513;-75
2021/11/25 12:27:34;;;;;;;18.17;7.00;;;4.60;99.90;;;;;;5049811;28;20051;-75
2021/11/25 12:32:35;;;;;;;11.32;5.53;;;4.40;99.90;;;;;;5069324;28;20111;-75
2021/11/25 12:35:26;;;;;;;11.93;6.00;;;4.40;99.90;;;;;;5060390;28;20078;-75
2021/11/25 12:38:00;;;;;;;18.25;8.18;;;4.20;99.90;;;;;;5049826;28;20060;-75
2021/11/25 12:40:26;;;;;;;10.68;6.53;;;4.40;99.90;;;;;;5065963;28;20056;-75
2021/11/25 12:42:56;;;;;;;11.30;5.95;;;4.40;99.90;;;;;;5068755;28;20056;-75
2021/11/25 12:45:38;;;;;;;15.32;7.40;;;4.40;99.90;;;;;;5067924;28;20539;-75
2021/11/25 12:48:11;;;;;;;8.48;5.30;;;4.50;99.90;;;;;;5045107;28;20025;-75
2021/11/25 12:50:46;;;;;;;13.43;6.07;;;4.50;99.90;;;;;;5045809;28;20040;-75
2021/11/25 12:53:19;;;;;;;12.02;6.70;;;4.60;99.90;;;;;;5045962;28;20029;-75
2021/11/25 12:55:51;;;;;;;15.95;7.45;;;4.60;99.90;;;;;;5046509;28;20525;-75
2021/11/25 12:58:16;;;;;;;10.02;6.18;;;4.70;99.90;;;;;;5065632;28;20028;-75
2021/11/25 13:00:45;;;;;;;11.35;7.25;;;4.80;99.90;;;;;;5066373;28;20039;-75
2021/11/25 13:03:10;;;;;;;12.60;6.78;;;4.80;99.90;;;;;;5066120;28;20025;-75
2021/11/25 13:05:39;;;;;;;12.38;7.68;;;4.90;99.90;;;;;;5065998;28;20036;-73
2021/11/25 13:08:08;;;;;;;12.73;5.97;;;5.00;99.90;;;;;;5049586;28;20108;-74
2021/11/25 13:10:38;;;;;;;10.55;6.40;;;5.00;99.90;;;;;;5045892;28;20037;-73